createdAt,value
2019-05-30T00:00:29.285Z,21.60
2019-05-30T00:03:02.308Z,21.56
2019-05-30T00:05:34.634Z,21.51
2019-05-30T00:08:07.108Z,21.42
2019-05-30T00:10:39.486Z,21.49
2019-05-30T00:13:11.857Z,21.45
2019-05-30T00:15:44.135Z,21.41
2019-05-30T00:18:16.801Z,21.37
2019-05-30T00:20:49.374Z,21.38
2019-05-30T00:23:22.773Z,21.41
2019-05-30T00:25:55.354Z,21.32
2019-05-30T00:28:28.032Z,21.26
2019-05-30T00:31:00.470Z,21.23
2019-05-30T00:33:32.774Z,21.20
2019-05-30T00:36:05.975Z,21.16
2019-05-30T00:38:38.349Z,21.15
2019-05-30T00:41:10.949Z,21.10
2019-05-30T00:43:43.390Z,21.09
2019-05-30T00:46:15.960Z,21.00
2019-05-30T00:48:48.447Z,21.00
2019-05-30T00:51:21.021Z,20.91
2019-05-30T00:53:53.817Z,20.86
2019-05-30T00:56:26.172Z,20.94
2019-05-30T00:58:58.796Z,20.94
2019-05-30T01:01:31.326Z,20.89
2019-05-30T01:04:04.959Z,20.85
2019-05-30T01:06:37.322Z,20.85
2019-05-30T01:09:10.185Z,20.78
2019-05-30T01:11:42.764Z,20.76
2019-05-30T01:14:15.025Z,20.71
2019-05-30T01:16:47.403Z,20.67
2019-05-30T01:19:19.779Z,20.62
2019-05-30T01:21:52.145Z,20.52
2019-05-30T01:24:24.818Z,20.51
2019-05-30T01:26:57.404Z,20.40
2019-05-30T01:29:29.772Z,20.27
2019-05-30T01:32:03.881Z,20.17
2019-05-30T01:34:37.081Z,20.16
2019-05-30T01:37:09.754Z,20.14
2019-05-30T01:39:42.233Z,20.05
2019-05-30T01:42:15.117Z,20.03
2019-05-30T01:44:47.795Z,20.00
2019-05-30T01:47:20.574Z,19.96
2019-05-30T01:49:52.953Z,19.95
2019-05-30T01:52:25.123Z,19.97
2019-05-30T01:54:58.526Z,19.96
2019-05-30T01:57:30.889Z,19.95
2019-05-30T02:00:08.060Z,19.86
2019-05-30T02:02:40.153Z,19.83
2019-05-30T02:05:13.539Z,19.85
2019-05-30T02:07:45.910Z,19.91
2019-05-30T02:10:18.166Z,19.85
2019-05-30T02:12:50.546Z,19.82
2019-05-30T02:15:22.812Z,19.84
2019-05-30T02:17:55.080Z,19.82
2019-05-30T02:20:27.559Z,19.84
2019-05-30T02:23:00.029Z,19.90
2019-05-30T02:25:32.405Z,19.92
2019-05-30T02:28:06.179Z,19.94
2019-05-30T02:30:38.201Z,19.94
2019-05-30T02:33:12.647Z,19.90
2019-05-30T02:35:44.348Z,19.93
2019-05-30T02:38:16.675Z,19.93
2019-05-30T02:40:49.193Z,19.96
2019-05-30T02:43:21.876Z,19.98
2019-05-30T02:45:54.668Z,20.02
2019-05-30T02:48:26.931Z,20.06
2019-05-30T02:51:00.926Z,20.15
2019-05-30T02:53:33.309Z,20.24
2019-05-30T02:56:06.414Z,20.30
2019-05-30T02:58:39.792Z,20.35
2019-05-30T03:01:14.367Z,20.39
2019-05-30T03:03:45.975Z,20.47
2019-05-30T03:06:18.241Z,20.53
2019-05-30T03:08:50.926Z,20.51
2019-05-30T03:11:23.499Z,20.60
2019-05-30T03:13:55.874Z,20.67
2019-05-30T03:16:28.654Z,20.77
2019-05-30T03:19:01.907Z,20.86
2019-05-30T03:21:34.319Z,20.94
2019-05-30T03:24:07.673Z,20.98
2019-05-30T03:26:41.124Z,21.05
2019-05-30T03:29:14.314Z,21.11
2019-05-30T03:31:47.000Z,21.23
2019-05-30T03:34:27.829Z,21.24
2019-05-30T03:36:53.620Z,21.41
2019-05-30T03:39:26.041Z,21.45
2019-05-30T03:41:58.516Z,21.63
2019-05-30T03:44:30.786Z,22.52
2019-05-30T03:47:03.999Z,24.10
2019-05-30T03:49:37.293Z,25.45
2019-05-30T03:54:19.281Z,26.87
2019-05-30T03:57:11.391Z,27.08
2019-05-30T04:00:08.520Z,26.16
2019-05-30T04:02:58.010Z,25.19
2019-05-30T04:05:45.013Z,24.44
2019-05-30T04:08:19.510Z,23.97
2019-05-30T04:10:51.757Z,24.11
2019-05-30T04:13:27.187Z,24.11
2019-05-30T04:15:59.677Z,24.05
2019-05-30T04:18:32.148Z,24.05
2019-05-30T04:21:04.615Z,24.13
2019-05-30T04:23:36.793Z,24.98
2019-05-30T04:26:09.709Z,26.34
2019-05-30T04:28:44.917Z,27.72
2019-05-30T04:31:19.314Z,28.15
2019-05-30T04:33:52.213Z,27.09
2019-05-30T04:36:24.788Z,26.67
2019-05-30T04:38:57.289Z,26.46
2019-05-30T04:41:29.846Z,26.08
2019-05-30T04:44:02.532Z,25.69
2019-05-30T04:46:34.791Z,25.89
2019-05-30T04:49:07.169Z,26.66
2019-05-30T04:51:39.974Z,26.81
2019-05-30T04:54:14.665Z,27.23
2019-05-30T04:56:47.778Z,28.02
2019-05-30T04:59:21.691Z,28.57
2019-05-30T05:01:54.574Z,28.74
2019-05-30T05:04:26.944Z,29.73
2019-05-30T05:06:59.310Z,30.08
2019-05-30T05:09:31.468Z,30.62
2019-05-30T05:12:03.937Z,30.92
2019-05-30T05:14:36.520Z,31.23
2019-05-30T05:17:09.106Z,31.80
2019-05-30T05:19:41.382Z,32.12
2019-05-30T05:22:14.829Z,32.95
2019-05-30T05:24:47.134Z,33.33
2019-05-30T05:27:19.725Z,33.75
2019-05-30T05:29:51.968Z,34.89
2019-05-30T05:32:24.758Z,35.66
2019-05-30T05:34:57.244Z,35.11
2019-05-30T05:37:29.925Z,35.04
2019-05-30T05:40:02.485Z,34.67
2019-05-30T05:42:34.856Z,34.58
2019-05-30T05:45:07.971Z,34.40
2019-05-30T05:47:40.753Z,34.66
2019-05-30T05:50:13.107Z,34.78
2019-05-30T05:52:45.886Z,34.41
2019-05-30T05:55:18.772Z,34.33
2019-05-30T05:57:51.476Z,34.45
2019-05-30T06:00:25.321Z,34.68
2019-05-30T06:02:57.729Z,34.40
2019-05-30T06:05:30.023Z,34.94
2019-05-30T06:08:02.497Z,35.12
2019-05-30T06:10:36.389Z,35.24
2019-05-30T06:13:09.066Z,35.47
2019-05-30T06:15:41.939Z,35.69
2019-05-30T06:18:14.383Z,35.81
2019-05-30T06:20:46.815Z,36.35
2019-05-30T06:23:19.599Z,37.51
2019-05-30T06:25:51.741Z,38.44
2019-05-30T06:28:24.683Z,38.41
2019-05-30T06:30:59.014Z,38.74
2019-05-30T06:33:30.803Z,39.32
2019-05-30T06:36:04.661Z,39.72
2019-05-30T06:38:37.500Z,40.03
2019-05-30T06:41:09.764Z,40.83
2019-05-30T06:43:42.544Z,41.43
2019-05-30T06:46:14.705Z,41.30
2019-05-30T06:48:47.290Z,41.50
2019-05-30T06:51:20.967Z,40.97
2019-05-30T06:53:53.475Z,41.13
2019-05-30T06:56:25.359Z,41.43
2019-05-30T06:58:57.393Z,41.69
2019-05-30T07:01:30.136Z,41.44
2019-05-30T07:04:02.358Z,41.51
2019-05-30T07:06:34.771Z,41.38
2019-05-30T07:09:09.139Z,40.90
2019-05-30T07:11:41.298Z,41.81
2019-05-30T07:14:13.575Z,41.06
2019-05-30T07:16:45.458Z,40.84
2019-05-30T07:19:17.698Z,41.10
2019-05-30T07:21:50.079Z,40.48
2019-05-30T07:24:23.710Z,40.53
2019-05-30T07:26:56.043Z,41.78
2019-05-30T07:29:29.917Z,42.78
2019-05-30T07:32:02.123Z,42.50
2019-05-30T07:34:34.818Z,42.52
2019-05-30T07:37:07.685Z,42.16
2019-05-30T07:39:40.417Z,40.05
2019-05-30T07:42:13.358Z,38.22
2019-05-30T07:44:46.131Z,36.27
2019-05-30T07:47:18.435Z,36.29
2019-05-30T07:49:51.185Z,37.60
2019-05-30T07:52:23.378Z,38.82
2019-05-30T07:54:59.002Z,40.02
2019-05-30T07:57:34.376Z,41.33
2019-05-30T08:00:12.333Z,41.64
2019-05-30T08:02:44.609Z,42.12
2019-05-30T08:05:24.160Z,42.38
2019-05-30T08:07:50.897Z,41.99
2019-05-30T08:10:23.578Z,41.40
2019-05-30T08:12:55.858Z,39.31
2019-05-30T08:15:29.256Z,38.08
2019-05-30T08:18:01.818Z,39.73
2019-05-30T08:20:33.985Z,41.33
2019-05-30T08:23:09.509Z,41.36
2019-05-30T08:25:39.963Z,41.94
2019-05-30T08:28:12.437Z,43.06
2019-05-30T08:30:44.864Z,43.49
2019-05-30T08:33:17.584Z,43.03
2019-05-30T08:35:50.521Z,43.48
2019-05-30T08:38:23.304Z,43.00
2019-05-30T08:40:56.044Z,43.30
2019-05-30T08:43:29.273Z,44.49
2019-05-30T08:46:02.291Z,44.49
2019-05-30T08:48:34.641Z,42.38
2019-05-30T08:51:07.582Z,41.12
2019-05-30T08:53:40.685Z,41.22
2019-05-30T08:56:13.135Z,41.50
2019-05-30T08:58:45.414Z,39.88
2019-05-30T09:01:18.196Z,39.37
2019-05-30T09:03:50.577Z,38.08
2019-05-30T09:06:23.051Z,37.63
2019-05-30T09:08:55.664Z,37.44
2019-05-30T09:11:28.121Z,39.15
2019-05-30T09:14:00.043Z,39.00
2019-05-30T09:16:32.533Z,39.07
2019-05-30T09:19:04.787Z,37.42
2019-05-30T09:21:38.747Z,36.18
2019-05-30T09:24:11.118Z,35.44
2019-05-30T09:26:47.163Z,35.21
2019-05-30T09:29:18.075Z,34.63
2019-05-30T09:31:50.661Z,34.71
2019-05-30T09:34:23.232Z,34.84
2019-05-30T09:36:55.498Z,36.05
2019-05-30T09:39:29.794Z,35.92
2019-05-30T09:42:02.390Z,36.36
2019-05-30T09:44:35.690Z,38.17
2019-05-30T09:47:08.353Z,37.46
2019-05-30T09:49:41.831Z,36.22
2019-05-30T09:52:15.296Z,35.83
2019-05-30T09:54:48.089Z,37.05
2019-05-30T09:57:20.498Z,37.12
2019-05-30T09:59:53.084Z,35.89
2019-05-30T10:02:25.759Z,35.11
2019-05-30T10:04:58.540Z,35.13
2019-05-30T10:07:31.047Z,34.50
2019-05-30T10:10:03.826Z,34.05
2019-05-30T10:12:36.280Z,33.18
2019-05-30T10:15:11.554Z,32.47
2019-05-30T10:17:45.769Z,32.54
2019-05-30T10:20:18.821Z,32.65
2019-05-30T10:22:53.263Z,33.02
2019-05-30T10:25:24.805Z,33.34
2019-05-30T10:27:57.805Z,33.96
2019-05-30T10:30:30.171Z,34.39
2019-05-30T10:33:02.934Z,34.88
2019-05-30T10:35:35.201Z,35.09
2019-05-30T10:38:07.536Z,34.48
2019-05-30T10:40:39.972Z,34.01
2019-05-30T10:43:12.729Z,34.15
2019-05-30T10:45:47.892Z,34.16
2019-05-30T10:48:21.292Z,34.62
2019-05-30T10:50:54.453Z,34.68
2019-05-30T10:53:26.248Z,34.87
2019-05-30T10:55:58.075Z,34.91
2019-05-30T10:58:30.969Z,34.08
2019-05-30T11:01:03.547Z,33.79
2019-05-30T11:03:38.088Z,33.67
2019-05-30T11:06:22.425Z,33.06
2019-05-30T11:08:55.190Z,32.95
2019-05-30T11:11:27.564Z,33.12
2019-05-30T11:14:00.443Z,32.94
2019-05-30T11:16:32.736Z,33.24
2019-05-30T11:19:07.447Z,33.45
2019-05-30T11:21:39.826Z,33.61
2019-05-30T11:24:12.601Z,33.28
2019-05-30T11:26:44.777Z,33.44
2019-05-30T11:29:17.345Z,33.22
2019-05-30T11:31:50.529Z,32.77
2019-05-30T11:34:23.116Z,32.50
2019-05-30T11:36:55.475Z,32.25
2019-05-30T11:39:28.058Z,32.30
2019-05-30T11:42:00.748Z,33.08
2019-05-30T11:44:33.719Z,33.58
2019-05-30T11:47:06.199Z,33.32
2019-05-30T11:49:38.692Z,33.76
2019-05-30T11:52:12.068Z,33.94
2019-05-30T11:54:44.658Z,34.04
2019-05-30T11:57:17.029Z,33.90
2019-05-30T11:59:50.095Z,33.94
2019-05-30T12:02:21.896Z,34.20
2019-05-30T12:04:54.530Z,34.47
2019-05-30T12:07:36.522Z,34.66
2019-05-30T12:10:01.615Z,34.28
2019-05-30T12:12:33.769Z,33.52
2019-05-30T12:15:08.025Z,33.96
2019-05-30T12:17:40.451Z,34.36
2019-05-30T12:20:13.292Z,34.33
2019-05-30T12:22:45.465Z,33.75
2019-05-30T12:25:19.115Z,33.64
2019-05-30T12:27:51.998Z,33.63
2019-05-30T12:30:24.622Z,33.76
2019-05-30T12:32:58.351Z,33.68
2019-05-30T12:35:31.072Z,34.16
2019-05-30T12:38:06.482Z,34.16
2019-05-30T12:40:37.824Z,33.76
2019-05-30T12:43:10.591Z,34.25
2019-05-30T12:45:43.917Z,34.57
2019-05-30T12:48:16.283Z,34.06
2019-05-30T12:50:49.230Z,34.20
2019-05-30T12:53:21.513Z,34.54
2019-05-30T12:55:54.380Z,34.16
2019-05-30T12:58:27.576Z,34.26
2019-05-30T13:01:00.878Z,34.52
2019-05-30T13:03:34.298Z,34.44
2019-05-30T13:06:07.558Z,34.51
2019-05-30T13:08:40.241Z,33.67
2019-05-30T13:11:12.820Z,32.96
2019-05-30T13:13:45.089Z,33.09
2019-05-30T13:16:23.241Z,32.97
2019-05-30T13:18:57.968Z,32.67
2019-05-30T13:21:30.515Z,32.55
2019-05-30T13:24:03.776Z,32.44
2019-05-30T13:26:36.501Z,32.62
2019-05-30T13:29:10.080Z,32.66
2019-05-30T13:31:42.851Z,32.58
2019-05-30T13:34:15.434Z,32.25
2019-05-30T13:36:47.913Z,32.25
2019-05-30T13:39:20.299Z,32.34
2019-05-30T13:41:52.962Z,31.74
2019-05-30T13:44:25.640Z,31.75
2019-05-30T13:47:00.625Z,31.75
2019-05-30T13:49:33.869Z,31.77
2019-05-30T13:52:07.279Z,31.93
2019-05-30T13:54:40.703Z,32.02
2019-05-30T13:57:14.133Z,31.50
2019-05-30T13:59:46.427Z,31.57
2019-05-30T14:02:20.613Z,31.51
2019-05-30T14:04:52.930Z,31.44
2019-05-30T14:07:28.147Z,31.20
2019-05-30T14:10:00.656Z,31.24
2019-05-30T14:12:33.066Z,31.03
2019-05-30T14:15:10.476Z,31.02
2019-05-30T14:17:42.232Z,30.80
2019-05-30T14:20:16.531Z,30.77
2019-05-30T14:22:49.142Z,30.94
2019-05-30T14:25:21.680Z,30.86
2019-05-30T14:27:54.114Z,30.77
2019-05-30T14:30:26.353Z,30.71
2019-05-30T14:33:02.052Z,30.73
2019-05-30T14:35:35.518Z,30.79
2019-05-30T14:38:08.778Z,30.73
2019-05-30T14:40:41.065Z,30.69
2019-05-30T14:43:14.041Z,30.70
2019-05-30T14:45:46.626Z,30.71
2019-05-30T14:48:19.723Z,30.57
2019-05-30T14:50:51.980Z,30.50
2019-05-30T14:53:24.750Z,30.43
2019-05-30T14:55:57.663Z,30.35
2019-05-30T14:58:30.118Z,30.29
2019-05-30T15:01:02.298Z,30.12
2019-05-30T15:03:35.265Z,29.90
2019-05-30T15:06:11.030Z,29.70
2019-05-30T15:08:42.768Z,29.83
2019-05-30T15:11:15.799Z,29.78
2019-05-30T15:13:48.459Z,29.90
2019-05-30T15:16:21.269Z,29.91
2019-05-30T15:18:55.060Z,29.83
2019-05-30T15:21:27.613Z,29.92
2019-05-30T15:24:00.431Z,29.56
2019-05-30T15:26:33.193Z,29.89
2019-05-30T15:29:05.991Z,29.90
2019-05-30T15:31:38.911Z,29.93
2019-05-30T15:34:12.597Z,30.02
2019-05-30T15:36:45.445Z,30.04
2019-05-30T15:39:32.251Z,30.07
2019-05-30T15:41:55.552Z,30.13
2019-05-30T15:44:28.734Z,30.11
2019-05-30T15:47:01.604Z,30.15
2019-05-30T15:49:36.174Z,30.17
2019-05-30T15:52:08.738Z,30.15
2019-05-30T15:54:41.427Z,30.20
2019-05-30T15:57:15.732Z,30.18
2019-05-30T15:59:48.459Z,30.09
2019-05-30T16:02:21.136Z,29.94
2019-05-30T16:04:53.945Z,29.88
2019-05-30T16:07:26.492Z,29.83
2019-05-30T16:09:59.515Z,29.78
2019-05-30T16:12:31.876Z,29.74
2019-05-30T16:15:09.200Z,29.74
2019-05-30T16:17:41.523Z,29.67
2019-05-30T16:22:20.575Z,29.54
2019-05-30T16:24:53.179Z,29.39
2019-05-30T16:27:26.945Z,29.26
2019-05-30T16:29:59.686Z,29.13
2019-05-30T16:32:33.025Z,29.11
2019-05-30T16:35:06.415Z,28.99
2019-05-30T16:37:38.999Z,28.85
2019-05-30T16:40:11.629Z,28.74
2019-05-30T16:42:44.064Z,28.61
2019-05-30T16:45:20.328Z,28.50
2019-05-30T16:47:51.117Z,28.35
2019-05-30T16:50:24.067Z,28.20
2019-05-30T16:52:56.973Z,28.06
2019-05-30T16:55:29.283Z,27.83
2019-05-30T16:58:05.233Z,27.83
2019-05-30T17:00:37.565Z,27.73
2019-05-30T17:03:10.127Z,27.64
2019-05-30T17:05:42.488Z,27.53
2019-05-30T17:08:16.004Z,27.43
2019-05-30T17:10:48.649Z,27.33
2019-05-30T17:13:21.701Z,27.24
2019-05-30T17:15:55.128Z,27.16
2019-05-30T17:18:28.034Z,27.04
2019-05-30T17:21:00.673Z,26.92
2019-05-30T17:23:34.005Z,26.84
2019-05-30T17:26:07.117Z,26.77
2019-05-30T17:28:40.221Z,26.66
2019-05-30T17:31:14.389Z,26.56
2019-05-30T17:33:47.187Z,26.43
2019-05-30T17:36:20.148Z,26.34
2019-05-30T17:38:52.966Z,26.23
2019-05-30T17:41:25.312Z,26.14
2019-05-30T17:43:57.985Z,26.10
2019-05-30T17:46:30.554Z,26.04
2019-05-30T17:49:04.575Z,25.97
2019-05-30T17:51:37.699Z,25.89
2019-05-30T17:54:10.539Z,25.82
2019-05-30T17:56:43.582Z,25.72
2019-05-30T17:59:17.696Z,25.63
2019-05-30T18:01:50.450Z,25.50
2019-05-30T18:04:24.357Z,25.44
2019-05-30T18:06:56.932Z,25.41
2019-05-30T18:09:31.076Z,25.36
2019-05-30T18:12:03.787Z,25.30
2019-05-30T18:14:36.512Z,25.24
2019-05-30T18:17:09.514Z,25.14
2019-05-30T18:19:43.363Z,25.04
2019-05-30T18:22:16.150Z,25.01
2019-05-30T18:24:49.238Z,25.00
2019-05-30T18:27:21.825Z,25.00
2019-05-30T18:29:55.509Z,24.96
2019-05-30T18:32:28.279Z,24.85
2019-05-30T18:35:01.328Z,24.77
2019-05-30T18:37:33.662Z,24.71
2019-05-30T18:40:08.181Z,24.60
2019-05-30T18:42:40.465Z,24.51
2019-05-30T18:45:13.337Z,24.49
2019-05-30T18:47:45.836Z,24.40
2019-05-30T18:50:18.781Z,24.35
2019-05-30T18:52:52.286Z,24.34
2019-05-30T18:55:24.866Z,24.37
2019-05-30T18:57:57.369Z,24.39
2019-05-30T19:00:31.226Z,24.37
2019-05-30T19:03:04.604Z,24.37
2019-05-30T19:05:37.744Z,24.36
2019-05-30T19:08:11.403Z,24.25
2019-05-30T19:10:44.303Z,24.19
2019-05-30T19:13:17.419Z,24.19
2019-05-30T19:15:51.247Z,24.15
2019-05-30T19:18:25.367Z,24.11
2019-05-30T19:20:58.063Z,24.07
2019-05-30T19:23:32.055Z,24.04
2019-05-30T19:26:04.738Z,24.00
2019-05-30T19:28:37.278Z,24.02
2019-05-30T19:31:09.765Z,24.09
2019-05-30T19:33:42.575Z,24.08
2019-05-30T19:36:17.063Z,23.96
2019-05-30T19:38:50.358Z,23.84
2019-05-30T19:41:23.042Z,23.84
2019-05-30T19:43:55.696Z,23.80
2019-05-30T19:46:28.462Z,23.73
2019-05-30T19:49:00.809Z,23.73
2019-05-30T19:51:35.090Z,23.76
2019-05-30T19:54:08.057Z,23.73
2019-05-30T19:56:42.022Z,23.70
2019-05-30T19:59:14.873Z,23.67
2019-05-30T20:01:48.141Z,23.68
2019-05-30T20:04:20.542Z,23.68
2019-05-30T20:06:52.846Z,23.74
2019-05-30T20:09:25.069Z,23.76
2019-05-30T20:12:03.205Z,23.74
2019-05-30T20:14:35.076Z,23.74
2019-05-30T20:17:07.342Z,23.70
2019-05-30T20:19:40.008Z,23.63
2019-05-30T20:22:13.096Z,23.62
2019-05-30T20:24:45.642Z,23.65
2019-05-30T20:27:18.817Z,23.59
2019-05-30T20:29:51.460Z,23.56
2019-05-30T20:32:24.203Z,23.56
2019-05-30T20:34:57.203Z,23.58
2019-05-30T20:37:29.927Z,23.55
2019-05-30T20:40:04.404Z,23.48
2019-05-30T20:42:37.375Z,23.45
2019-05-30T20:45:10.409Z,23.37
2019-05-30T20:47:44.488Z,23.27
2019-05-30T20:50:16.850Z,23.15
2019-05-30T20:52:49.479Z,23.07
2019-05-30T20:55:22.075Z,23.07
2019-05-30T20:57:54.398Z,23.03
2019-05-30T21:00:40.337Z,22.95
2019-05-30T21:03:13.601Z,22.87
2019-05-30T21:05:46.075Z,22.83
2019-05-30T21:08:18.515Z,22.76
2019-05-30T21:10:50.765Z,22.72
2019-05-30T21:13:23.208Z,22.67
2019-05-30T21:15:55.514Z,22.65
2019-05-30T21:18:28.417Z,22.63
2019-05-30T21:21:00.608Z,22.59
2019-05-30T21:23:32.993Z,22.50
2019-05-30T21:26:05.302Z,22.45
2019-05-30T21:28:38.637Z,22.46
2019-05-30T21:31:10.988Z,22.47
2019-05-30T21:33:44.010Z,22.48
2019-05-30T21:36:16.074Z,22.45
2019-05-30T21:38:48.208Z,22.37
2019-05-30T21:41:20.325Z,22.36
2019-05-30T21:43:52.415Z,22.31
2019-05-30T21:46:24.548Z,22.35
2019-05-30T21:48:56.981Z,22.34
2019-05-30T21:51:29.533Z,22.31
2019-05-30T21:54:02.084Z,22.30
2019-05-30T21:56:34.552Z,22.26
2019-05-30T21:59:06.918Z,22.26
2019-05-30T22:01:40.661Z,22.24
2019-05-30T22:04:13.048Z,22.26
2019-05-30T22:06:45.279Z,22.22
2019-05-30T22:09:17.477Z,22.23
2019-05-30T22:11:49.786Z,22.22
2019-05-30T22:14:21.986Z,22.19
2019-05-30T22:16:54.048Z,22.18
2019-05-30T22:19:26.356Z,22.20
2019-05-30T22:21:58.644Z,22.25
2019-05-30T22:24:30.861Z,22.29
2019-05-30T22:27:03.152Z,22.36
2019-05-30T22:29:35.831Z,22.36
2019-05-30T22:32:08.303Z,22.32
2019-05-30T22:34:40.881Z,22.24
2019-05-30T22:37:13.009Z,22.13
2019-05-30T22:39:45.424Z,22.06
2019-05-30T22:42:17.892Z,22.02
2019-05-30T22:44:50.583Z,21.98
2019-05-30T22:47:22.959Z,21.98
2019-05-30T22:49:55.199Z,21.99
2019-05-30T22:52:27.243Z,21.96
2019-05-30T22:54:59.850Z,21.92
2019-05-30T22:57:32.223Z,21.88
2019-05-30T23:00:06.525Z,21.84
2019-05-30T23:02:39.534Z,21.78
2019-05-30T23:05:11.748Z,21.75
2019-05-30T23:07:45.258Z,21.72
2019-05-30T23:10:16.989Z,21.68
2019-05-30T23:12:49.730Z,21.63
2019-05-30T23:15:21.805Z,21.60
2019-05-30T23:17:54.790Z,21.54
2019-05-30T23:20:26.986Z,21.53
2019-05-30T23:22:59.336Z,21.49
2019-05-30T23:25:32.042Z,21.49
2019-05-30T23:28:04.095Z,21.48
2019-05-30T23:30:36.302Z,21.39
2019-05-30T23:33:08.516Z,21.35
2019-05-30T23:35:40.782Z,21.32
2019-05-30T23:38:13.699Z,21.27
2019-05-30T23:40:45.547Z,21.26
2019-05-30T23:43:17.586Z,21.18
2019-05-30T23:45:49.759Z,21.16
2019-05-30T23:48:22.233Z,21.13
2019-05-30T23:50:54.464Z,21.12
2019-05-30T23:53:26.667Z,21.10
2019-05-30T23:56:00.629Z,21.06
2019-05-30T23:58:32.980Z,21.00
